sensor_id;sensor_type;location;lat;lon;timestamp;P1;durP1;ratioP1;P2;durP2;ratioP2
51714;SDS011;39115;59.332;18.034;2022-07-18T00:01:37;0.00;;;0.00;;
51714;SDS011;39115;59.332;18.034;2022-07-18T00:04:03;0.10;;;0.10;;
51714;SDS011;39115;59.332;18.034;2022-07-18T00:06:28;0.30;;;0.03;;
51714;SDS011;39115;59.332;18.034;2022-07-18T00:08:54;0.20;;;0.10;;
51714;SDS011;39115;59.332;18.034;2022-07-18T00:11:21;0.00;;;0.00;;
51714;SDS011;39115;59.332;18.034;2022-07-18T00:13:47;0.57;;;0.10;;
51714;SDS011;39115;59.332;18.034;2022-07-18T00:16:12;0.10;;;0.00;;
51714;SDS011;39115;59.332;18.034;2022-07-18T00:18:38;1.67;;;0.08;;
51714;SDS011;39115;59.332;18.034;2022-07-18T00:21:04;0.10;;;0.00;;
51714;SDS011;39115;59.332;18.034;2022-07-18T00:23:29;0.82;;;0.10;;
51714;SDS011;39115;59.332;18.034;2022-07-18T00:25:54;0.57;;;0.10;;
51714;SDS011;39115;59.332;18.034;2022-07-18T00:28:20;0.43;;;0.05;;
51714;SDS011;39115;59.332;18.034;2022-07-18T00:30:45;0.10;;;0.10;;
51714;SDS011;39115;59.332;18.034;2022-07-18T00:33:11;1.17;;;0.10;;
51714;SDS011;39115;59.332;18.034;2022-07-18T00:35:37;0.43;;;0.10;;
51714;SDS011;39115;59.332;18.034;2022-07-18T00:38:03;0.63;;;0.10;;
51714;SDS011;39115;59.332;18.034;2022-07-18T00:40:29;0.20;;;0.10;;
51714;SDS011;39115;59.332;18.034;2022-07-18T00:42:55;1.35;;;0.10;;
51714;SDS011;39115;59.332;18.034;2022-07-18T00:45:20;0.52;;;0.10;;
51714;SDS011;39115;59.332;18.034;2022-07-18T00:47:45;0.10;;;0.00;;
51714;SDS011;39115;59.332;18.034;2022-07-18T00:50:11;0.20;;;0.10;;
51714;SDS011;39115;59.332;18.034;2022-07-18T00:52:37;0.15;;;0.10;;
51714;SDS011;39115;59.332;18.034;2022-07-18T00:55:05;1.45;;;0.10;;
51714;SDS011;39115;59.332;18.034;2022-07-18T00:57:31;0.20;;;0.03;;
51714;SDS011;39115;59.332;18.034;2022-07-18T00:59:57;0.10;;;0.10;;
51714;SDS011;39115;59.332;18.034;2022-07-18T01:02:41;0.70;;;0.10;;
51714;SDS011;39115;59.332;18.034;2022-07-18T01:05:07;0.80;;;0.10;;
51714;SDS011;39115;59.332;18.034;2022-07-18T01:07:36;1.30;;;0.20;;
51714;SDS011;39115;59.332;18.034;2022-07-18T01:10:03;0.82;;;0.10;;
51714;SDS011;39115;59.332;18.034;2022-07-18T01:12:29;0.32;;;0.10;;
51714;SDS011;39115;59.332;18.034;2022-07-18T01:14:55;0.20;;;0.10;;
51714;SDS011;39115;59.332;18.034;2022-07-18T01:17:23;0.10;;;0.00;;
51714;SDS011;39115;59.332;18.034;2022-07-18T01:19:48;0.57;;;0.10;;
51714;SDS011;39115;59.332;18.034;2022-07-18T01:22:15;0.38;;;0.10;;
51714;SDS011;39115;59.332;18.034;2022-07-18T01:24:44;0.22;;;0.13;;
51714;SDS011;39115;59.332;18.034;2022-07-18T01:27:13;0.93;;;0.10;;
51714;SDS011;39115;59.332;18.034;2022-07-18T01:29:43;0.40;;;0.17;;
51714;SDS011;39115;59.332;18.034;2022-07-18T01:32:10;0.10;;;0.08;;
51714;SDS011;39115;59.332;18.034;2022-07-18T01:34:36;0.08;;;0.05;;
51714;SDS011;39115;59.332;18.034;2022-07-18T01:37:02;0.20;;;0.10;;
51714;SDS011;39115;59.332;18.034;2022-07-18T01:39:28;0.77;;;0.10;;
51714;SDS011;39115;59.332;18.034;2022-07-18T01:42:12;0.47;;;0.10;;
51714;SDS011;39115;59.332;18.034;2022-07-18T01:44:38;0.05;;;0.05;;
51714;SDS011;39115;59.332;18.034;2022-07-18T01:47:04;0.10;;;0.10;;
51714;SDS011;39115;59.332;18.034;2022-07-18T01:49:32;0.40;;;0.10;;
51714;SDS011;39115;59.332;18.034;2022-07-18T01:51:57;0.20;;;0.10;;
51714;SDS011;39115;59.332;18.034;2022-07-18T01:54:25;1.55;;;0.10;;
51714;SDS011;39115;59.332;18.034;2022-07-18T01:56:52;0.63;;;0.10;;
51714;SDS011;39115;59.332;18.034;2022-07-18T01:59:18;0.20;;;0.10;;
51714;SDS011;39115;59.332;18.034;2022-07-18T02:01:44;0.15;;;0.10;;
51714;SDS011;39115;59.332;18.034;2022-07-18T02:04:09;0.73;;;0.20;;
51714;SDS011;39115;59.332;18.034;2022-07-18T02:06:35;0.20;;;0.10;;
51714;SDS011;39115;59.332;18.034;2022-07-18T02:09:01;0.50;;;0.13;;
51714;SDS011;39115;59.332;18.034;2022-07-18T02:11:26;0.38;;;0.10;;
51714;SDS011;39115;59.332;18.034;2022-07-18T02:13:51;1.20;;;0.10;;
51714;SDS011;39115;59.332;18.034;2022-07-18T02:16:17;0.20;;;0.20;;
51714;SDS011;39115;59.332;18.034;2022-07-18T02:18:42;0.57;;;0.10;;
51714;SDS011;39115;59.332;18.034;2022-07-18T02:21:08;0.85;;;0.10;;
51714;SDS011;39115;59.332;18.034;2022-07-18T02:23:34;0.20;;;0.10;;
51714;SDS011;39115;59.332;18.034;2022-07-18T02:26:00;0.20;;;0.10;;
51714;SDS011;39115;59.332;18.034;2022-07-18T02:28:25;0.25;;;0.10;;
51714;SDS011;39115;59.332;18.034;2022-07-18T02:30:51;0.30;;;0.10;;
51714;SDS011;39115;59.332;18.034;2022-07-18T02:33:17;0.85;;;0.10;;
51714;SDS011;39115;59.332;18.034;2022-07-18T02:35:43;1.75;;;0.10;;
51714;SDS011;39115;59.332;18.034;2022-07-18T02:38:08;0.20;;;0.10;;
51714;SDS011;39115;59.332;18.034;2022-07-18T02:40:34;1.20;;;0.10;;
51714;SDS011;39115;59.332;18.034;2022-07-18T02:42:59;0.73;;;0.10;;
51714;SDS011;39115;59.332;18.034;2022-07-18T02:45:25;0.30;;;0.10;;
51714;SDS011;39115;59.332;18.034;2022-07-18T02:47:51;0.95;;;0.15;;
51714;SDS011;39115;59.332;18.034;2022-07-18T02:50:17;3.60;;;1.00;;
51714;SDS011;39115;59.332;18.034;2022-07-18T02:52:43;0.30;;;0.10;;
51714;SDS011;39115;59.332;18.034;2022-07-18T02:55:09;1.38;;;0.30;;
51714;SDS011;39115;59.332;18.034;2022-07-18T02:57:35;0.28;;;0.28;;
51714;SDS011;39115;59.332;18.034;2022-07-18T03:00:03;0.40;;;0.10;;
51714;SDS011;39115;59.332;18.034;2022-07-18T03:02:30;0.60;;;0.10;;
51714;SDS011;39115;59.332;18.034;2022-07-18T03:04:55;1.90;;;0.15;;
51714;SDS011;39115;59.332;18.034;2022-07-18T03:07:20;0.32;;;0.20;;
51714;SDS011;39115;59.332;18.034;2022-07-18T03:09:46;0.47;;;0.20;;
51714;SDS011;39115;59.332;18.034;2022-07-18T03:12:12;0.20;;;0.10;;
51714;SDS011;39115;59.332;18.034;2022-07-18T03:14:37;0.13;;;0.10;;
51714;SDS011;39115;59.332;18.034;2022-07-18T03:17:02;0.30;;;0.20;;
51714;SDS011;39115;59.332;18.034;2022-07-18T03:19:28;1.75;;;0.13;;
51714;SDS011;39115;59.332;18.034;2022-07-18T03:21:53;0.52;;;0.25;;
51714;SDS011;39115;59.332;18.034;2022-07-18T03:24:19;0.28;;;0.10;;
51714;SDS011;39115;59.332;18.034;2022-07-18T03:26:44;0.20;;;0.20;;
51714;SDS011;39115;59.332;18.034;2022-07-18T03:29:10;0.10;;;0.10;;
51714;SDS011;39115;59.332;18.034;2022-07-18T03:31:36;0.98;;;0.10;;
51714;SDS011;39115;59.332;18.034;2022-07-18T03:34:02;1.35;;;0.20;;
51714;SDS011;39115;59.332;18.034;2022-07-18T03:36:28;0.80;;;0.20;;
51714;SDS011;39115;59.332;18.034;2022-07-18T03:38:54;0.88;;;0.10;;
51714;SDS011;39115;59.332;18.034;2022-07-18T03:41:19;1.30;;;0.20;;
51714;SDS011;39115;59.332;18.034;2022-07-18T03:43:44;0.40;;;0.20;;
51714;SDS011;39115;59.332;18.034;2022-07-18T03:46:10;0.50;;;0.20;;
51714;SDS011;39115;59.332;18.034;2022-07-18T03:48:35;0.43;;;0.20;;
51714;SDS011;39115;59.332;18.034;2022-07-18T03:51:01;0.85;;;0.15;;
51714;SDS011;39115;59.332;18.034;2022-07-18T03:53:28;1.90;;;0.20;;
51714;SDS011;39115;59.332;18.034;2022-07-18T03:55:54;1.63;;;0.20;;
51714;SDS011;39115;59.332;18.034;2022-07-18T03:58:19;3.67;;;0.32;;
51714;SDS011;39115;59.332;18.034;2022-07-18T04:00:45;0.50;;;0.20;;
51714;SDS011;39115;59.332;18.034;2022-07-18T04:03:10;2.80;;;0.30;;
51714;SDS011;39115;59.332;18.034;2022-07-18T04:05:36;2.67;;;0.20;;
51714;SDS011;39115;59.332;18.034;2022-07-18T04:08:01;4.07;;;0.28;;
51714;SDS011;39115;59.332;18.034;2022-07-18T04:10:27;1.83;;;0.20;;
51714;SDS011;39115;59.332;18.034;2022-07-18T04:12:53;2.38;;;0.20;;
51714;SDS011;39115;59.332;18.034;2022-07-18T04:15:23;0.80;;;0.20;;
51714;SDS011;39115;59.332;18.034;2022-07-18T04:17:50;2.65;;;0.30;;
51714;SDS011;39115;59.332;18.034;2022-07-18T04:20:18;0.75;;;0.20;;
51714;SDS011;39115;59.332;18.034;2022-07-18T04:22:45;1.98;;;0.30;;
51714;SDS011;39115;59.332;18.034;2022-07-18T04:25:15;1.20;;;0.40;;
51714;SDS011;39115;59.332;18.034;2022-07-18T04:27:41;0.57;;;0.30;;
51714;SDS011;39115;59.332;18.034;2022-07-18T04:30:06;0.82;;;0.30;;
51714;SDS011;39115;59.332;18.034;2022-07-18T04:32:32;1.42;;;0.25;;
51714;SDS011;39115;59.332;18.034;2022-07-18T04:34:58;1.08;;;0.30;;
51714;SDS011;39115;59.332;18.034;2022-07-18T04:37:23;1.45;;;0.30;;
51714;SDS011;39115;59.332;18.034;2022-07-18T04:39:49;1.17;;;0.50;;
51714;SDS011;39115;59.332;18.034;2022-07-18T04:42:14;1.02;;;0.35;;
51714;SDS011;39115;59.332;18.034;2022-07-18T04:44:39;2.58;;;0.90;;
51714;SDS011;39115;59.332;18.034;2022-07-18T04:47:05;1.98;;;0.47;;
51714;SDS011;39115;59.332;18.034;2022-07-18T04:49:30;0.50;;;0.30;;
51714;SDS011;39115;59.332;18.034;2022-07-18T04:51:56;1.13;;;0.35;;
51714;SDS011;39115;59.332;18.034;2022-07-18T04:54:21;1.20;;;0.30;;
51714;SDS011;39115;59.332;18.034;2022-07-18T04:56:47;1.40;;;0.40;;
51714;SDS011;39115;59.332;18.034;2022-07-18T04:59:12;1.83;;;0.80;;
51714;SDS011;39115;59.332;18.034;2022-07-18T05:01:37;1.35;;;0.30;;
51714;SDS011;39115;59.332;18.034;2022-07-18T05:04:03;4.85;;;0.77;;
51714;SDS011;39115;59.332;18.034;2022-07-18T05:06:29;1.13;;;0.60;;
51714;SDS011;39115;59.332;18.034;2022-07-18T05:08:54;3.50;;;0.50;;
51714;SDS011;39115;59.332;18.034;2022-07-18T05:11:20;3.53;;;0.50;;
51714;SDS011;39115;59.332;18.034;2022-07-18T05:13:45;2.47;;;0.40;;
51714;SDS011;39115;59.332;18.034;2022-07-18T05:16:11;2.10;;;0.57;;
51714;SDS011;39115;59.332;18.034;2022-07-18T05:18:36;3.67;;;0.60;;
51714;SDS011;39115;59.332;18.034;2022-07-18T05:21:02;3.53;;;0.70;;
51714;SDS011;39115;59.332;18.034;2022-07-18T05:23:27;2.30;;;0.50;;
51714;SDS011;39115;59.332;18.034;2022-07-18T05:25:52;2.20;;;0.50;;
51714;SDS011;39115;59.332;18.034;2022-07-18T05:28:18;1.48;;;0.40;;
51714;SDS011;39115;59.332;18.034;2022-07-18T05:30:43;2.45;;;0.50;;
51714;SDS011;39115;59.332;18.034;2022-07-18T05:33:09;1.77;;;0.57;;
51714;SDS011;39115;59.332;18.034;2022-07-18T05:35:34;4.38;;;0.60;;
51714;SDS011;39115;59.332;18.034;2022-07-18T05:38:00;3.35;;;1.08;;
51714;SDS011;39115;59.332;18.034;2022-07-18T05:40:25;5.35;;;0.70;;
51714;SDS011;39115;59.332;18.034;2022-07-18T05:42:51;4.22;;;0.93;;
51714;SDS011;39115;59.332;18.034;2022-07-18T05:45:17;3.00;;;0.77;;
51714;SDS011;39115;59.332;18.034;2022-07-18T05:47:42;4.43;;;0.70;;
51714;SDS011;39115;59.332;18.034;2022-07-18T05:50:08;2.70;;;0.60;;
51714;SDS011;39115;59.332;18.034;2022-07-18T05:52:33;2.97;;;0.65;;
51714;SDS011;39115;59.332;18.034;2022-07-18T05:54:59;5.30;;;0.80;;
51714;SDS011;39115;59.332;18.034;2022-07-18T05:57:25;5.03;;;0.80;;
51714;SDS011;39115;59.332;18.034;2022-07-18T05:59:51;7.53;;;0.80;;
51714;SDS011;39115;59.332;18.034;2022-07-18T06:02:16;3.75;;;0.88;;
51714;SDS011;39115;59.332;18.034;2022-07-18T06:04:42;3.35;;;0.63;;
51714;SDS011;39115;59.332;18.034;2022-07-18T06:07:07;7.03;;;0.85;;
51714;SDS011;39115;59.332;18.034;2022-07-18T06:09:33;3.55;;;0.80;;
51714;SDS011;39115;59.332;18.034;2022-07-18T06:11:59;5.82;;;1.00;;
51714;SDS011;39115;59.332;18.034;2022-07-18T06:14:28;4.47;;;0.98;;
51714;SDS011;39115;59.332;18.034;2022-07-18T06:16:54;3.70;;;0.70;;
51714;SDS011;39115;59.332;18.034;2022-07-18T06:19:19;3.40;;;0.65;;
51714;SDS011;39115;59.332;18.034;2022-07-18T06:21:45;3.75;;;1.05;;
51714;SDS011;39115;59.332;18.034;2022-07-18T06:24:11;6.82;;;1.10;;
51714;SDS011;39115;59.332;18.034;2022-07-18T06:26:37;3.53;;;1.30;;
51714;SDS011;39115;59.332;18.034;2022-07-18T06:29:02;11.55;;;1.00;;
51714;SDS011;39115;59.332;18.034;2022-07-18T06:31:28;4.05;;;1.23;;
51714;SDS011;39115;59.332;18.034;2022-07-18T06:33:53;5.00;;;0.90;;
51714;SDS011;39115;59.332;18.034;2022-07-18T06:36:19;5.18;;;1.15;;
51714;SDS011;39115;59.332;18.034;2022-07-18T06:38:46;3.58;;;1.00;;
51714;SDS011;39115;59.332;18.034;2022-07-18T06:41:12;5.53;;;1.08;;
51714;SDS011;39115;59.332;18.034;2022-07-18T06:43:38;3.55;;;1.20;;
51714;SDS011;39115;59.332;18.034;2022-07-18T06:46:03;4.50;;;1.23;;
51714;SDS011;39115;59.332;18.034;2022-07-18T06:48:29;4.45;;;1.05;;
51714;SDS011;39115;59.332;18.034;2022-07-18T06:50:58;4.88;;;1.40;;
51714;SDS011;39115;59.332;18.034;2022-07-18T06:53:24;8.35;;;1.40;;
51714;SDS011;39115;59.332;18.034;2022-07-18T06:55:50;5.68;;;1.25;;
51714;SDS011;39115;59.332;18.034;2022-07-18T06:58:15;5.78;;;1.58;;
51714;SDS011;39115;59.332;18.034;2022-07-18T07:00:41;3.78;;;1.30;;
51714;SDS011;39115;59.332;18.034;2022-07-18T07:03:06;4.63;;;1.10;;
51714;SDS011;39115;59.332;18.034;2022-07-18T07:05:32;5.47;;;1.52;;
51714;SDS011;39115;59.332;18.034;2022-07-18T07:07:57;4.65;;;1.25;;
51714;SDS011;39115;59.332;18.034;2022-07-18T07:10:22;3.20;;;1.08;;
51714;SDS011;39115;59.332;18.034;2022-07-18T07:12:49;3.95;;;0.90;;
51714;SDS011;39115;59.332;18.034;2022-07-18T07:15:18;8.27;;;1.20;;
51714;SDS011;39115;59.332;18.034;2022-07-18T07:17:44;5.13;;;0.90;;
51714;SDS011;39115;59.332;18.034;2022-07-18T07:20:10;3.00;;;1.13;;
51714;SDS011;39115;59.332;18.034;2022-07-18T07:22:46;4.78;;;0.98;;
51714;SDS011;39115;59.332;18.034;2022-07-18T07:25:15;4.47;;;1.00;;
51714;SDS011;39115;59.332;18.034;2022-07-18T07:27:42;5.72;;;1.30;;
51714;SDS011;39115;59.332;18.034;2022-07-18T07:30:08;3.25;;;0.90;;
51714;SDS011;39115;59.332;18.034;2022-07-18T07:32:34;4.38;;;1.00;;
51714;SDS011;39115;59.332;18.034;2022-07-18T07:35:01;4.00;;;1.13;;
51714;SDS011;39115;59.332;18.034;2022-07-18T07:37:28;3.85;;;1.20;;
51714;SDS011;39115;59.332;18.034;2022-07-18T07:39:54;6.03;;;0.73;;
51714;SDS011;39115;59.332;18.034;2022-07-18T07:42:20;4.75;;;1.33;;
51714;SDS011;39115;59.332;18.034;2022-07-18T07:44:45;3.83;;;1.02;;
51714;SDS011;39115;59.332;18.034;2022-07-18T07:47:11;4.15;;;1.25;;
51714;SDS011;39115;59.332;18.034;2022-07-18T07:49:36;3.63;;;1.02;;
51714;SDS011;39115;59.332;18.034;2022-07-18T07:52:02;4.28;;;0.95;;
51714;SDS011;39115;59.332;18.034;2022-07-18T07:54:27;4.13;;;1.10;;
51714;SDS011;39115;59.332;18.034;2022-07-18T07:56:52;3.78;;;1.10;;
51714;SDS011;39115;59.332;18.034;2022-07-18T07:59:18;3.03;;;1.13;;
51714;SDS011;39115;59.332;18.034;2022-07-18T08:01:43;4.57;;;1.15;;
51714;SDS011;39115;59.332;18.034;2022-07-18T08:04:09;2.60;;;1.10;;
51714;SDS011;39115;59.332;18.034;2022-07-18T08:06:34;2.78;;;1.10;;
51714;SDS011;39115;59.332;18.034;2022-07-18T08:08:59;2.50;;;0.70;;
51714;SDS011;39115;59.332;18.034;2022-07-18T08:11:25;5.93;;;0.75;;
51714;SDS011;39115;59.332;18.034;2022-07-18T08:13:50;2.53;;;0.80;;
51714;SDS011;39115;59.332;18.034;2022-07-18T08:16:16;4.53;;;0.95;;
51714;SDS011;39115;59.332;18.034;2022-07-18T08:18:41;5.13;;;1.13;;
51714;SDS011;39115;59.332;18.034;2022-07-18T08:21:07;7.28;;;1.55;;
51714;SDS011;39115;59.332;18.034;2022-07-18T08:23:32;1.77;;;0.65;;
51714;SDS011;39115;59.332;18.034;2022-07-18T08:25:58;2.97;;;0.95;;
51714;SDS011;39115;59.332;18.034;2022-07-18T08:28:23;5.40;;;0.95;;
51714;SDS011;39115;59.332;18.034;2022-07-18T08:30:49;5.65;;;0.82;;
51714;SDS011;39115;59.332;18.034;2022-07-18T08:33:15;3.20;;;0.88;;
51714;SDS011;39115;59.332;18.034;2022-07-18T08:35:40;2.95;;;0.93;;
51714;SDS011;39115;59.332;18.034;2022-07-18T08:38:05;6.47;;;1.50;;
51714;SDS011;39115;59.332;18.034;2022-07-18T08:40:31;3.92;;;1.02;;
51714;SDS011;39115;59.332;18.034;2022-07-18T08:42:57;3.42;;;0.80;;
51714;SDS011;39115;59.332;18.034;2022-07-18T08:45:23;2.40;;;0.60;;
51714;SDS011;39115;59.332;18.034;2022-07-18T08:47:50;2.45;;;0.80;;
51714;SDS011;39115;59.332;18.034;2022-07-18T08:50:17;3.88;;;1.17;;
51714;SDS011;39115;59.332;18.034;2022-07-18T08:52:43;5.07;;;1.17;;
51714;SDS011;39115;59.332;18.034;2022-07-18T08:55:09;4.95;;;0.82;;
51714;SDS011;39115;59.332;18.034;2022-07-18T08:57:35;2.95;;;1.20;;
51714;SDS011;39115;59.332;18.034;2022-07-18T09:00:08;3.30;;;0.90;;
51714;SDS011;39115;59.332;18.034;2022-07-18T09:02:35;4.07;;;0.90;;
51714;SDS011;39115;59.332;18.034;2022-07-18T09:05:01;4.80;;;1.00;;
51714;SDS011;39115;59.332;18.034;2022-07-18T09:07:32;2.20;;;0.85;;
51714;SDS011;39115;59.332;18.034;2022-07-18T09:10:03;5.20;;;0.93;;
51714;SDS011;39115;59.332;18.034;2022-07-18T09:12:30;4.07;;;1.23;;
51714;SDS011;39115;59.332;18.034;2022-07-18T09:15:04;4.18;;;1.10;;
51714;SDS011;39115;59.332;18.034;2022-07-18T09:17:31;3.22;;;0.88;;
51714;SDS011;39115;59.332;18.034;2022-07-18T09:22:40;4.85;;;0.90;;
51714;SDS011;39115;59.332;18.034;2022-07-18T09:25:12;2.17;;;0.50;;
51714;SDS011;39115;59.332;18.034;2022-07-18T09:35:31;1.27;;;0.55;;
51714;SDS011;39115;59.332;18.034;2022-07-18T09:43:05;4.57;;;0.75;;
51714;SDS011;39115;59.332;18.034;2022-07-18T09:45:35;1.83;;;0.50;;
51714;SDS011;39115;59.332;18.034;2022-07-18T09:48:10;3.70;;;1.05;;
51714;SDS011;39115;59.332;18.034;2022-07-18T09:50:41;2.20;;;0.70;;
51714;SDS011;39115;59.332;18.034;2022-07-18T09:53:18;2.97;;;0.70;;
51714;SDS011;39115;59.332;18.034;2022-07-18T09:55:52;4.13;;;0.73;;
51714;SDS011;39115;59.332;18.034;2022-07-18T09:58:20;8.13;;;1.52;;
51714;SDS011;39115;59.332;18.034;2022-07-18T10:00:49;2.15;;;0.50;;
51714;SDS011;39115;59.332;18.034;2022-07-18T10:03:16;2.00;;;0.60;;
51714;SDS011;39115;59.332;18.034;2022-07-18T10:05:43;3.53;;;0.50;;
51714;SDS011;39115;59.332;18.034;2022-07-18T10:08:11;2.67;;;0.70;;
51714;SDS011;39115;59.332;18.034;2022-07-18T10:10:38;2.95;;;0.55;;
51714;SDS011;39115;59.332;18.034;2022-07-18T10:13:05;1.38;;;0.50;;
51714;SDS011;39115;59.332;18.034;2022-07-18T10:15:32;1.70;;;0.52;;
51714;SDS011;39115;59.332;18.034;2022-07-18T10:18:01;1.85;;;0.60;;
51714;SDS011;39115;59.332;18.034;2022-07-18T10:23:06;2.53;;;0.50;;
51714;SDS011;39115;59.332;18.034;2022-07-18T10:25:34;1.75;;;0.50;;
51714;SDS011;39115;59.332;18.034;2022-07-18T10:28:06;3.55;;;0.82;;
51714;SDS011;39115;59.332;18.034;2022-07-18T10:36:09;1.90;;;0.68;;
51714;SDS011;39115;59.332;18.034;2022-07-18T10:39:02;2.88;;;0.50;;
51714;SDS011;39115;59.332;18.034;2022-07-18T10:57:26;1.90;;;0.60;;
51714;SDS011;39115;59.332;18.034;2022-07-18T11:05:50;1.40;;;0.40;;
51714;SDS011;39115;59.332;18.034;2022-07-18T11:08:36;3.05;;;0.60;;
51714;SDS011;39115;59.332;18.034;2022-07-18T11:23:48;1.90;;;0.55;;
51714;SDS011;39115;59.332;18.034;2022-07-18T11:26:15;1.70;;;0.50;;
51714;SDS011;39115;59.332;18.034;2022-07-18T11:28:48;2.80;;;0.50;;
51714;SDS011;39115;59.332;18.034;2022-07-18T11:31:21;1.10;;;0.52;;
51714;SDS011;39115;59.332;18.034;2022-07-18T11:33:47;2.85;;;0.40;;
51714;SDS011;39115;59.332;18.034;2022-07-18T11:36:15;1.45;;;0.73;;
51714;SDS011;39115;59.332;18.034;2022-07-18T11:38:49;1.75;;;0.40;;
51714;SDS011;39115;59.332;18.034;2022-07-18T11:41:21;0.82;;;0.45;;
51714;SDS011;39115;59.332;18.034;2022-07-18T11:43:48;3.03;;;0.47;;
51714;SDS011;39115;59.332;18.034;2022-07-18T11:46:15;0.95;;;0.40;;
51714;SDS011;39115;59.332;18.034;2022-07-18T11:48:43;2.35;;;0.40;;
51714;SDS011;39115;59.332;18.034;2022-07-18T11:51:12;0.55;;;0.35;;
51714;SDS011;39115;59.332;18.034;2022-07-18T11:54:00;1.42;;;0.40;;
51714;SDS011;39115;59.332;18.034;2022-07-18T11:56:26;0.77;;;0.35;;
51714;SDS011;39115;59.332;18.034;2022-07-18T11:58:51;1.75;;;0.47;;
51714;SDS011;39115;59.332;18.034;2022-07-18T12:01:17;0.73;;;0.40;;
51714;SDS011;39115;59.332;18.034;2022-07-18T12:03:47;2.28;;;0.57;;
51714;SDS011;39115;59.332;18.034;2022-07-18T12:06:15;1.05;;;0.40;;
51714;SDS011;39115;59.332;18.034;2022-07-18T12:08:47;2.60;;;0.60;;
51714;SDS011;39115;59.332;18.034;2022-07-18T12:13:56;2.38;;;0.60;;
51714;SDS011;39115;59.332;18.034;2022-07-18T12:19:09;4.55;;;0.68;;
51714;SDS011;39115;59.332;18.034;2022-07-18T12:21:53;1.70;;;0.40;;
51714;SDS011;39115;59.332;18.034;2022-07-18T12:32:42;2.83;;;0.60;;
51714;SDS011;39115;59.332;18.034;2022-07-18T12:35:15;2.83;;;0.70;;
51714;SDS011;39115;59.332;18.034;2022-07-18T12:40:51;3.88;;;0.60;;
51714;SDS011;39115;59.332;18.034;2022-07-18T12:43:30;0.98;;;0.50;;
51714;SDS011;39115;59.332;18.034;2022-07-18T12:45:59;1.65;;;0.50;;
51714;SDS011;39115;59.332;18.034;2022-07-18T12:48:27;0.85;;;0.50;;
51714;SDS011;39115;59.332;18.034;2022-07-18T12:50:57;1.40;;;0.40;;
51714;SDS011;39115;59.332;18.034;2022-07-18T12:53:23;3.55;;;0.50;;
51714;SDS011;39115;59.332;18.034;2022-07-18T12:55:50;2.05;;;0.40;;
51714;SDS011;39115;59.332;18.034;2022-07-18T12:58:16;2.22;;;0.40;;
51714;SDS011;39115;59.332;18.034;2022-07-18T13:00:41;2.67;;;0.70;;
51714;SDS011;39115;59.332;18.034;2022-07-18T13:03:06;1.88;;;0.40;;
51714;SDS011;39115;59.332;18.034;2022-07-18T13:05:32;3.80;;;0.68;;
51714;SDS011;39115;59.332;18.034;2022-07-18T13:07:57;0.80;;;0.30;;
51714;SDS011;39115;59.332;18.034;2022-07-18T13:10:23;1.23;;;0.50;;
51714;SDS011;39115;59.332;18.034;2022-07-18T13:12:49;2.45;;;0.93;;
51714;SDS011;39115;59.332;18.034;2022-07-18T13:15:14;0.80;;;0.40;;
51714;SDS011;39115;59.332;18.034;2022-07-18T13:17:40;1.65;;;0.60;;
51714;SDS011;39115;59.332;18.034;2022-07-18T13:20:05;1.02;;;0.50;;
51714;SDS011;39115;59.332;18.034;2022-07-18T13:22:31;1.45;;;0.75;;
51714;SDS011;39115;59.332;18.034;2022-07-18T13:25:03;0.90;;;0.60;;
51714;SDS011;39115;59.332;18.034;2022-07-18T13:27:30;1.38;;;0.60;;
51714;SDS011;39115;59.332;18.034;2022-07-18T13:29:55;1.88;;;0.50;;
51714;SDS011;39115;59.332;18.034;2022-07-18T13:32:20;1.63;;;0.40;;
51714;SDS011;39115;59.332;18.034;2022-07-18T13:34:46;1.45;;;0.60;;
51714;SDS011;39115;59.332;18.034;2022-07-18T13:37:11;2.47;;;0.55;;
51714;SDS011;39115;59.332;18.034;2022-07-18T13:39:37;2.03;;;0.60;;
51714;SDS011;39115;59.332;18.034;2022-07-18T13:42:02;1.40;;;0.60;;
51714;SDS011;39115;59.332;18.034;2022-07-18T13:44:30;4.43;;;0.75;;
51714;SDS011;39115;59.332;18.034;2022-07-18T13:46:55;2.28;;;0.70;;
51714;SDS011;39115;59.332;18.034;2022-07-18T13:49:21;3.25;;;0.50;;
51714;SDS011;39115;59.332;18.034;2022-07-18T13:51:47;1.55;;;0.55;;
51714;SDS011;39115;59.332;18.034;2022-07-18T13:54:12;1.45;;;0.68;;
51714;SDS011;39115;59.332;18.034;2022-07-18T13:56:41;1.42;;;0.60;;
51714;SDS011;39115;59.332;18.034;2022-07-18T13:59:07;1.13;;;0.60;;
51714;SDS011;39115;59.332;18.034;2022-07-18T14:01:33;1.40;;;0.60;;
51714;SDS011;39115;59.332;18.034;2022-07-18T14:03:58;1.17;;;0.63;;
51714;SDS011;39115;59.332;18.034;2022-07-18T14:06:23;1.73;;;0.80;;
51714;SDS011;39115;59.332;18.034;2022-07-18T14:08:49;2.58;;;0.80;;
51714;SDS011;39115;59.332;18.034;2022-07-18T14:11:14;2.30;;;0.70;;
51714;SDS011;39115;59.332;18.034;2022-07-18T14:13:40;3.03;;;0.73;;
51714;SDS011;39115;59.332;18.034;2022-07-18T14:16:05;1.20;;;0.82;;
51714;SDS011;39115;59.332;18.034;2022-07-18T14:18:31;1.45;;;0.70;;
51714;SDS011;39115;59.332;18.034;2022-07-18T14:20:56;1.70;;;0.80;;
51714;SDS011;39115;59.332;18.034;2022-07-18T14:23:21;1.17;;;0.60;;
51714;SDS011;39115;59.332;18.034;2022-07-18T14:25:47;1.00;;;0.40;;
51714;SDS011;39115;59.332;18.034;2022-07-18T14:28:12;1.50;;;0.50;;
51714;SDS011;39115;59.332;18.034;2022-07-18T14:30:38;2.15;;;0.60;;
51714;SDS011;39115;59.332;18.034;2022-07-18T14:33:03;1.75;;;0.60;;
51714;SDS011;39115;59.332;18.034;2022-07-18T14:35:29;1.35;;;0.50;;
51714;SDS011;39115;59.332;18.034;2022-07-18T14:37:54;0.93;;;0.30;;
51714;SDS011;39115;59.332;18.034;2022-07-18T14:40:19;1.35;;;0.30;;
51714;SDS011;39115;59.332;18.034;2022-07-18T14:42:45;2.35;;;0.65;;
51714;SDS011;39115;59.332;18.034;2022-07-18T14:45:10;0.30;;;0.30;;
51714;SDS011;39115;59.332;18.034;2022-07-18T14:47:36;0.98;;;0.30;;
51714;SDS011;39115;59.332;18.034;2022-07-18T14:50:03;1.45;;;0.40;;
51714;SDS011;39115;59.332;18.034;2022-07-18T14:52:29;0.60;;;0.32;;
51714;SDS011;39115;59.332;18.034;2022-07-18T14:54:55;1.10;;;0.30;;
51714;SDS011;39115;59.332;18.034;2022-07-18T14:57:20;0.63;;;0.30;;
51714;SDS011;39115;59.332;18.034;2022-07-18T14:59:45;0.60;;;0.30;;
51714;SDS011;39115;59.332;18.034;2022-07-18T15:02:11;0.98;;;0.32;;
51714;SDS011;39115;59.332;18.034;2022-07-18T15:04:37;0.90;;;0.30;;
51714;SDS011;39115;59.332;18.034;2022-07-18T15:07:03;1.73;;;0.30;;
51714;SDS011;39115;59.332;18.034;2022-07-18T15:09:28;0.60;;;0.40;;
51714;SDS011;39115;59.332;18.034;2022-07-18T15:11:54;0.80;;;0.40;;
51714;SDS011;39115;59.332;18.034;2022-07-18T15:14:19;0.80;;;0.43;;
51714;SDS011;39115;59.332;18.034;2022-07-18T15:16:45;1.05;;;0.40;;
51714;SDS011;39115;59.332;18.034;2022-07-18T15:19:10;0.90;;;0.43;;
51714;SDS011;39115;59.332;18.034;2022-07-18T15:21:36;1.50;;;0.50;;
51714;SDS011;39115;59.332;18.034;2022-07-18T15:24:01;1.20;;;0.52;;
51714;SDS011;39115;59.332;18.034;2022-07-18T15:26:27;1.27;;;0.52;;
51714;SDS011;39115;59.332;18.034;2022-07-18T15:28:52;1.30;;;0.55;;
51714;SDS011;39115;59.332;18.034;2022-07-18T15:31:18;2.20;;;0.90;;
51714;SDS011;39115;59.332;18.034;2022-07-18T15:33:43;1.30;;;0.77;;
51714;SDS011;39115;59.332;18.034;2022-07-18T15:36:09;1.20;;;0.70;;
51714;SDS011;39115;59.332;18.034;2022-07-18T15:38:35;3.75;;;0.70;;
51714;SDS011;39115;59.332;18.034;2022-07-18T15:41:00;2.50;;;0.93;;
51714;SDS011;39115;59.332;18.034;2022-07-18T15:43:26;1.60;;;0.80;;
51714;SDS011;39115;59.332;18.034;2022-07-18T15:45:51;2.22;;;0.85;;